sensor_id;sensor_type;location;lat;lon;timestamp;P1;durP1;ratioP1;P2;durP2;ratioP2
62977;SDS011;49073;42.352;23.808;2023-12-07T01:18:18;0.77;;;0.77;;
62977;SDS011;49073;42.352;23.808;2023-12-07T01:28:05;0.70;;;0.70;;
62977;SDS011;49073;42.352;23.808;2023-12-07T01:38:55;1.00;;;1.00;;
62977;SDS011;49073;42.352;23.808;2023-12-07T01:43:10;6.80;;;2.03;;
62977;SDS011;49073;42.352;23.808;2023-12-07T02:08:19;1.13;;;1.10;;
62977;SDS011;49073;42.352;23.808;2023-12-07T02:46:49;1.13;;;1.13;;
62977;SDS011;49073;42.352;23.808;2023-12-07T03:09:29;2.38;;;1.52;;
62977;SDS011;49073;42.352;23.808;2023-12-07T03:16:53;1.73;;;1.63;;
62977;SDS011;49073;42.352;23.808;2023-12-07T03:20:21;1.05;;;1.05;;
62977;SDS011;49073;42.352;23.808;2023-12-07T03:24:12;0.68;;;0.68;;
62977;SDS011;49073;42.352;23.808;2023-12-07T03:27:38;1.60;;;1.50;;
62977;SDS011;49073;42.352;23.808;2023-12-07T03:30:42;1.50;;;1.40;;
62977;SDS011;49073;42.352;23.808;2023-12-07T03:34:16;3.80;;;1.40;;
62977;SDS011;49073;42.352;23.808;2023-12-07T03:37:43;2.78;;;1.02;;
62977;SDS011;49073;42.352;23.808;2023-12-07T03:45:23;1.42;;;1.42;;
62977;SDS011;49073;42.352;23.808;2023-12-07T03:49:18;0.75;;;0.75;;
62977;SDS011;49073;42.352;23.808;2023-12-07T03:56:00;1.27;;;1.20;;
62977;SDS011;49073;42.352;23.808;2023-12-07T03:59:07;2.55;;;1.33;;
62977;SDS011;49073;42.352;23.808;2023-12-07T04:02:56;1.80;;;1.67;;
62977;SDS011;49073;42.352;23.808;2023-12-07T04:10:05;1.25;;;1.20;;
62977;SDS011;49073;42.352;23.808;2023-12-07T04:14:26;1.23;;;1.00;;
62977;SDS011;49073;42.352;23.808;2023-12-07T04:24:30;0.60;;;0.60;;
62977;SDS011;49073;42.352;23.808;2023-12-07T04:27:34;2.42;;;1.35;;
62977;SDS011;49073;42.352;23.808;2023-12-07T04:34:44;3.83;;;2.15;;
62977;SDS011;49073;42.352;23.808;2023-12-07T04:56:46;1.40;;;0.90;;
62977;SDS011;49073;42.352;23.808;2023-12-07T05:15:57;3.88;;;1.55;;
62977;SDS011;49073;42.352;23.808;2023-12-07T05:24:14;3.08;;;2.53;;
62977;SDS011;49073;42.352;23.808;2023-12-07T05:39:00;3.10;;;2.38;;
62977;SDS011;49073;42.352;23.808;2023-12-07T06:14:06;6.28;;;2.70;;
62977;SDS011;49073;42.352;23.808;2023-12-07T06:22:07;3.22;;;2.42;;
62977;SDS011;49073;42.352;23.808;2023-12-07T06:50:21;1.38;;;1.27;;
62977;SDS011;49073;42.352;23.808;2023-12-07T06:54:03;1.13;;;1.02;;
62977;SDS011;49073;42.352;23.808;2023-12-07T07:00:51;3.40;;;1.95;;
62977;SDS011;49073;42.352;23.808;2023-12-07T07:08:22;7.97;;;5.35;;
62977;SDS011;49073;42.352;23.808;2023-12-07T07:23:33;3.25;;;2.17;;
62977;SDS011;49073;42.352;23.808;2023-12-07T07:27:04;3.10;;;2.28;;
62977;SDS011;49073;42.352;23.808;2023-12-07T07:30:25;0.65;;;0.65;;
62977;SDS011;49073;42.352;23.808;2023-12-07T07:44:47;1.50;;;1.50;;
62977;SDS011;49073;42.352;23.808;2023-12-07T07:56:21;1.65;;;1.55;;
62977;SDS011;49073;42.352;23.808;2023-12-07T07:59:52;1.73;;;1.63;;
62977;SDS011;49073;42.352;23.808;2023-12-07T08:07:04;2.30;;;1.70;;
62977;SDS011;49073;42.352;23.808;2023-12-07T08:34:18;2.80;;;1.67;;
62977;SDS011;49073;42.352;23.808;2023-12-07T09:00:41;1.17;;;1.08;;
62977;SDS011;49073;42.352;23.808;2023-12-07T09:23:42;0.50;;;0.50;;
62977;SDS011;49073;42.352;23.808;2023-12-07T09:32:28;0.88;;;0.70;;
62977;SDS011;49073;42.352;23.808;2023-12-07T10:16:04;0.98;;;0.95;;
62977;SDS011;49073;42.352;23.808;2023-12-07T10:19:55;1.92;;;1.75;;
62977;SDS011;49073;42.352;23.808;2023-12-07T10:27:31;1.42;;;1.42;;
62977;SDS011;49073;42.352;23.808;2023-12-07T10:31:29;5.38;;;1.95;;
62977;SDS011;49073;42.352;23.808;2023-12-07T10:43:04;3.40;;;2.53;;
62977;SDS011;49073;42.352;23.808;2023-12-07T10:46:56;2.58;;;2.45;;
62977;SDS011;49073;42.352;23.808;2023-12-07T11:14:29;0.82;;;0.82;;
62977;SDS011;49073;42.352;23.808;2023-12-07T11:22:06;2.05;;;1.95;;
62977;SDS011;49073;42.352;23.808;2023-12-07T11:33:51;1.05;;;0.95;;
62977;SDS011;49073;42.352;23.808;2023-12-07T11:45:47;1.00;;;1.00;;
62977;SDS011;49073;42.352;23.808;2023-12-07T12:08:23;2.50;;;2.30;;
62977;SDS011;49073;42.352;23.808;2023-12-07T12:12:18;0.60;;;0.60;;
62977;SDS011;49073;42.352;23.808;2023-12-07T12:45:45;1.85;;;1.75;;
62977;SDS011;49073;42.352;23.808;2023-12-07T13:05:53;1.00;;;1.00;;
62977;SDS011;49073;42.352;23.808;2023-12-07T13:09:50;0.80;;;0.80;;
62977;SDS011;49073;42.352;23.808;2023-12-07T13:13:30;1.23;;;1.23;;
62977;SDS011;49073;42.352;23.808;2023-12-07T14:13:15;0.60;;;0.60;;
62977;SDS011;49073;42.352;23.808;2023-12-07T14:17:08;0.50;;;0.50;;
62977;SDS011;49073;42.352;23.808;2023-12-07T14:36:02;0.50;;;0.50;;
62977;SDS011;49073;42.352;23.808;2023-12-07T14:39:42;0.60;;;0.60;;
62977;SDS011;49073;42.352;23.808;2023-12-07T14:54:25;0.90;;;0.85;;
62977;SDS011;49073;42.352;23.808;2023-12-07T15:01:46;0.50;;;0.50;;
62977;SDS011;49073;42.352;23.808;2023-12-07T15:10:02;0.50;;;0.50;;
62977;SDS011;49073;42.352;23.808;2023-12-07T15:32:28;0.40;;;0.40;;
62977;SDS011;49073;42.352;23.808;2023-12-07T15:39:46;0.73;;;0.73;;
62977;SDS011;49073;42.352;23.808;2023-12-07T15:43:32;0.40;;;0.40;;
62977;SDS011;49073;42.352;23.808;2023-12-07T15:47:28;0.50;;;0.50;;
62977;SDS011;49073;42.352;23.808;2023-12-07T15:50:53;0.50;;;0.50;;
62977;SDS011;49073;42.352;23.808;2023-12-07T16:21:27;0.55;;;0.55;;
62977;SDS011;49073;42.352;23.808;2023-12-07T16:41:19;0.50;;;0.50;;
62977;SDS011;49073;42.352;23.808;2023-12-07T17:03:37;0.50;;;0.50;;
62977;SDS011;49073;42.352;23.808;2023-12-07T17:07:26;0.40;;;0.40;;
62977;SDS011;49073;42.352;23.808;2023-12-07T17:28:17;0.50;;;0.50;;
62977;SDS011;49073;42.352;23.808;2023-12-07T17:31:19;0.50;;;0.50;;
62977;SDS011;49073;42.352;23.808;2023-12-07T17:34:19;0.50;;;0.50;;
62977;SDS011;49073;42.352;23.808;2023-12-07T17:37:20;1.00;;;1.00;;
62977;SDS011;49073;42.352;23.808;2023-12-07T17:40:20;1.13;;;1.13;;
62977;SDS011;49073;42.352;23.808;2023-12-07T17:43:21;0.60;;;0.60;;
62977;SDS011;49073;42.352;23.808;2023-12-07T17:46:21;0.60;;;0.60;;
62977;SDS011;49073;42.352;23.808;2023-12-07T17:49:22;0.50;;;0.50;;
62977;SDS011;49073;42.352;23.808;2023-12-07T17:52:23;0.65;;;0.65;;
62977;SDS011;49073;42.352;23.808;2023-12-07T17:55:23;0.50;;;0.50;;
62977;SDS011;49073;42.352;23.808;2023-12-07T17:58:23;0.50;;;0.50;;
62977;SDS011;49073;42.352;23.808;2023-12-07T18:01:24;0.40;;;0.40;;
62977;SDS011;49073;42.352;23.808;2023-12-07T18:04:25;0.50;;;0.50;;
62977;SDS011;49073;42.352;23.808;2023-12-07T18:07:26;0.73;;;0.73;;
62977;SDS011;49073;42.352;23.808;2023-12-07T18:10:27;0.50;;;0.50;;
62977;SDS011;49073;42.352;23.808;2023-12-07T18:13:28;0.70;;;0.70;;
62977;SDS011;49073;42.352;23.808;2023-12-07T18:16:28;0.60;;;0.60;;
62977;SDS011;49073;42.352;23.808;2023-12-07T18:19:29;0.52;;;0.52;;
62977;SDS011;49073;42.352;23.808;2023-12-07T18:22:29;0.47;;;0.47;;
62977;SDS011;49073;42.352;23.808;2023-12-07T18:25:30;0.80;;;0.80;;
62977;SDS011;49073;42.352;23.808;2023-12-07T18:28:31;0.50;;;0.50;;
62977;SDS011;49073;42.352;23.808;2023-12-07T18:31:31;0.60;;;0.60;;
62977;SDS011;49073;42.352;23.808;2023-12-07T18:34:32;0.50;;;0.50;;
62977;SDS011;49073;42.352;23.808;2023-12-07T18:37:32;0.43;;;0.43;;
62977;SDS011;49073;42.352;23.808;2023-12-07T18:40:33;0.60;;;0.60;;
62977;SDS011;49073;42.352;23.808;2023-12-07T18:43:35;0.73;;;0.73;;
62977;SDS011;49073;42.352;23.808;2023-12-07T18:46:36;0.50;;;0.50;;
62977;SDS011;49073;42.352;23.808;2023-12-07T18:49:37;0.60;;;0.60;;
62977;SDS011;49073;42.352;23.808;2023-12-07T18:52:37;0.60;;;0.60;;
62977;SDS011;49073;42.352;23.808;2023-12-07T18:55:39;0.47;;;0.47;;
62977;SDS011;49073;42.352;23.808;2023-12-07T18:58:39;0.50;;;0.50;;
62977;SDS011;49073;42.352;23.808;2023-12-07T19:01:40;0.50;;;0.50;;
62977;SDS011;49073;42.352;23.808;2023-12-07T19:04:41;0.50;;;0.50;;
62977;SDS011;49073;42.352;23.808;2023-12-07T19:07:42;0.50;;;0.50;;
62977;SDS011;49073;42.352;23.808;2023-12-07T19:10:43;0.50;;;0.50;;
62977;SDS011;49073;42.352;23.808;2023-12-07T19:13:44;0.52;;;0.52;;
62977;SDS011;49073;42.352;23.808;2023-12-07T19:16:44;0.40;;;0.40;;
62977;SDS011;49073;42.352;23.808;2023-12-07T19:19:45;0.50;;;0.50;;
62977;SDS011;49073;42.352;23.808;2023-12-07T19:22:45;0.50;;;0.50;;
62977;SDS011;49073;42.352;23.808;2023-12-07T19:25:48;0.57;;;0.57;;
62977;SDS011;49073;42.352;23.808;2023-12-07T19:28:49;0.50;;;0.50;;
62977;SDS011;49073;42.352;23.808;2023-12-07T19:31:49;0.50;;;0.50;;
62977;SDS011;49073;42.352;23.808;2023-12-07T19:34:50;0.50;;;0.50;;
62977;SDS011;49073;42.352;23.808;2023-12-07T19:37:51;0.80;;;0.80;;
62977;SDS011;49073;42.352;23.808;2023-12-07T19:40:51;0.50;;;0.50;;
62977;SDS011;49073;42.352;23.808;2023-12-07T19:43:52;0.50;;;0.50;;
62977;SDS011;49073;42.352;23.808;2023-12-07T19:46:53;0.55;;;0.55;;
62977;SDS011;49073;42.352;23.808;2023-12-07T19:49:53;0.50;;;0.50;;
62977;SDS011;49073;42.352;23.808;2023-12-07T19:52:54;0.50;;;0.50;;
62977;SDS011;49073;42.352;23.808;2023-12-07T19:55:54;0.65;;;0.65;;
62977;SDS011;49073;42.352;23.808;2023-12-07T19:58:55;0.60;;;0.60;;
62977;SDS011;49073;42.352;23.808;2023-12-07T20:01:56;0.82;;;0.73;;
62977;SDS011;49073;42.352;23.808;2023-12-07T20:04:57;0.60;;;0.60;;
62977;SDS011;49073;42.352;23.808;2023-12-07T20:07:58;0.50;;;0.50;;
62977;SDS011;49073;42.352;23.808;2023-12-07T20:11:00;0.70;;;0.70;;
62977;SDS011;49073;42.352;23.808;2023-12-07T20:14:01;0.55;;;0.55;;
62977;SDS011;49073;42.352;23.808;2023-12-07T20:17:02;0.50;;;0.50;;
62977;SDS011;49073;42.352;23.808;2023-12-07T20:20:03;0.50;;;0.50;;
62977;SDS011;49073;42.352;23.808;2023-12-07T20:23:04;0.65;;;0.65;;
62977;SDS011;49073;42.352;23.808;2023-12-07T20:26:05;0.75;;;0.75;;
62977;SDS011;49073;42.352;23.808;2023-12-07T20:29:06;0.70;;;0.70;;
62977;SDS011;49073;42.352;23.808;2023-12-07T20:32:07;0.50;;;0.50;;
62977;SDS011;49073;42.352;23.808;2023-12-07T20:35:07;0.50;;;0.50;;
62977;SDS011;49073;42.352;23.808;2023-12-07T20:38:08;0.50;;;0.50;;
62977;SDS011;49073;42.352;23.808;2023-12-07T20:41:10;0.50;;;0.50;;
62977;SDS011;49073;42.352;23.808;2023-12-07T20:44:16;0.50;;;0.50;;
62977;SDS011;49073;42.352;23.808;2023-12-07T20:47:17;0.50;;;0.50;;
62977;SDS011;49073;42.352;23.808;2023-12-07T20:50:18;0.77;;;0.77;;
62977;SDS011;49073;42.352;23.808;2023-12-07T20:53:19;0.50;;;0.50;;
62977;SDS011;49073;42.352;23.808;2023-12-07T20:56:20;0.68;;;0.68;;
62977;SDS011;49073;42.352;23.808;2023-12-07T20:59:22;0.50;;;0.50;;
62977;SDS011;49073;42.352;23.808;2023-12-07T21:02:22;0.50;;;0.50;;
62977;SDS011;49073;42.352;23.808;2023-12-07T21:05:23;0.50;;;0.50;;
62977;SDS011;49073;42.352;23.808;2023-12-07T21:08:24;0.50;;;0.50;;
62977;SDS011;49073;42.352;23.808;2023-12-07T21:11:25;0.50;;;0.50;;
62977;SDS011;49073;42.352;23.808;2023-12-07T21:14:25;0.50;;;0.50;;
62977;SDS011;49073;42.352;23.808;2023-12-07T21:17:26;0.50;;;0.50;;
62977;SDS011;49073;42.352;23.808;2023-12-07T21:20:27;0.75;;;0.75;;
62977;SDS011;49073;42.352;23.808;2023-12-07T21:23:27;0.47;;;0.47;;
62977;SDS011;49073;42.352;23.808;2023-12-07T21:26:28;0.50;;;0.50;;
62977;SDS011;49073;42.352;23.808;2023-12-07T21:29:28;0.60;;;0.60;;
62977;SDS011;49073;42.352;23.808;2023-12-07T21:32:29;0.60;;;0.60;;
62977;SDS011;49073;42.352;23.808;2023-12-07T21:35:29;0.47;;;0.47;;
62977;SDS011;49073;42.352;23.808;2023-12-07T21:38:30;0.57;;;0.57;;
62977;SDS011;49073;42.352;23.808;2023-12-07T21:41:30;0.50;;;0.50;;
62977;SDS011;49073;42.352;23.808;2023-12-07T21:44:31;0.45;;;0.45;;
62977;SDS011;49073;42.352;23.808;2023-12-07T21:47:31;0.40;;;0.40;;
62977;SDS011;49073;42.352;23.808;2023-12-07T21:50:32;0.50;;;0.50;;
62977;SDS011;49073;42.352;23.808;2023-12-07T21:53:33;0.65;;;0.65;;
62977;SDS011;49073;42.352;23.808;2023-12-07T21:56:33;0.50;;;0.50;;
62977;SDS011;49073;42.352;23.808;2023-12-07T21:59:34;0.50;;;0.50;;
62977;SDS011;49073;42.352;23.808;2023-12-07T22:02:34;0.50;;;0.50;;
62977;SDS011;49073;42.352;23.808;2023-12-07T22:05:35;0.60;;;0.60;;
62977;SDS011;49073;42.352;23.808;2023-12-07T22:08:36;0.70;;;0.70;;
62977;SDS011;49073;42.352;23.808;2023-12-07T22:11:37;0.50;;;0.50;;
62977;SDS011;49073;42.352;23.808;2023-12-07T22:14:37;0.70;;;0.70;;
62977;SDS011;49073;42.352;23.808;2023-12-07T22:17:38;0.50;;;0.50;;
62977;SDS011;49073;42.352;23.808;2023-12-07T22:20:40;0.70;;;0.70;;
62977;SDS011;49073;42.352;23.808;2023-12-07T22:23:40;0.50;;;0.50;;
62977;SDS011;49073;42.352;23.808;2023-12-07T22:26:42;0.50;;;0.50;;
62977;SDS011;49073;42.352;23.808;2023-12-07T22:29:43;0.60;;;0.60;;
62977;SDS011;49073;42.352;23.808;2023-12-07T22:32:46;0.50;;;0.50;;
62977;SDS011;49073;42.352;23.808;2023-12-07T22:35:47;0.50;;;0.50;;
62977;SDS011;49073;42.352;23.808;2023-12-07T22:38:47;0.70;;;0.70;;
62977;SDS011;49073;42.352;23.808;2023-12-07T22:41:48;0.60;;;0.60;;
62977;SDS011;49073;42.352;23.808;2023-12-07T22:44:48;0.50;;;0.50;;
62977;SDS011;49073;42.352;23.808;2023-12-07T22:47:49;0.70;;;0.70;;
62977;SDS011;49073;42.352;23.808;2023-12-07T22:50:49;0.50;;;0.50;;
62977;SDS011;49073;42.352;23.808;2023-12-07T22:53:50;0.80;;;0.80;;
62977;SDS011;49073;42.352;23.808;2023-12-07T22:56:51;0.52;;;0.52;;
62977;SDS011;49073;42.352;23.808;2023-12-07T22:59:52;0.50;;;0.50;;
62977;SDS011;49073;42.352;23.808;2023-12-07T23:02:52;1.05;;;1.05;;
62977;SDS011;49073;42.352;23.808;2023-12-07T23:05:53;0.43;;;0.43;;
62977;SDS011;49073;42.352;23.808;2023-12-07T23:08:53;0.40;;;0.40;;
62977;SDS011;49073;42.352;23.808;2023-12-07T23:11:54;0.50;;;0.50;;
62977;SDS011;49073;42.352;23.808;2023-12-07T23:14:55;0.50;;;0.50;;
62977;SDS011;49073;42.352;23.808;2023-12-07T23:17:55;0.50;;;0.50;;
62977;SDS011;49073;42.352;23.808;2023-12-07T23:20:56;0.60;;;0.60;;
62977;SDS011;49073;42.352;23.808;2023-12-07T23:23:57;0.40;;;0.40;;
62977;SDS011;49073;42.352;23.808;2023-12-07T23:26:57;1.80;;;1.10;;
62977;SDS011;49073;42.352;23.808;2023-12-07T23:29:58;0.63;;;0.63;;
62977;SDS011;49073;42.352;23.808;2023-12-07T23:32:59;0.60;;;0.60;;
62977;SDS011;49073;42.352;23.808;2023-12-07T23:35:59;0.50;;;0.50;;
62977;SDS011;49073;42.352;23.808;2023-12-07T23:39:00;0.60;;;0.60;;
62977;SDS011;49073;42.352;23.808;2023-12-07T23:42:00;0.90;;;0.90;;
62977;SDS011;49073;42.352;23.808;2023-12-07T23:45:01;0.55;;;0.55;;
62977;SDS011;49073;42.352;23.808;2023-12-07T23:48:02;0.80;;;0.80;;
62977;SDS011;49073;42.352;23.808;2023-12-07T23:51:03;0.70;;;0.70;;
62977;SDS011;49073;42.352;23.808;2023-12-07T23:54:03;0.50;;;0.50;;
62977;SDS011;49073;42.352;23.808;2023-12-07T23:57:04;0.60;;;0.60;;
